createdAt,value
2018-04-17T00:02:16.468Z,63.07
2018-04-17T00:05:19.885Z,62.76
2018-04-17T00:08:23.088Z,63.50
2018-04-17T00:11:26.277Z,63.37
2018-04-17T00:14:29.648Z,63.81
2018-04-17T00:17:32.980Z,63.66
2018-04-17T00:20:36.241Z,63.43
2018-04-17T00:23:39.581Z,62.88
2018-04-17T00:26:42.866Z,63.72
2018-04-17T00:29:46.126Z,63.59
2018-04-17T00:32:49.376Z,63.55
2018-04-17T00:35:52.728Z,63.80
2018-04-17T00:38:56.019Z,63.53
2018-04-17T00:41:59.247Z,63.92
2018-04-17T00:45:02.629Z,64.28
2018-04-17T00:48:05.844Z,64.97
2018-04-17T00:51:09.040Z,65.24
2018-04-17T00:54:12.369Z,64.41
2018-04-17T00:57:16.759Z,65.68
2018-04-17T01:00:20.036Z,65.34
2018-04-17T01:03:23.354Z,65.25
2018-04-17T01:06:26.745Z,66.04
2018-04-17T01:09:30.032Z,65.93
2018-04-17T01:12:33.432Z,66.09
2018-04-17T01:15:36.725Z,66.44
2018-04-17T01:18:40.017Z,66.54
2018-04-17T01:21:43.334Z,65.02
2018-04-17T01:24:46.716Z,66.53
2018-04-17T01:27:49.940Z,67.23
2018-04-17T01:30:53.123Z,67.56
2018-04-17T01:33:56.497Z,67.55
2018-04-17T01:36:59.819Z,67.50
2018-04-17T01:40:03.008Z,67.54
2018-04-17T01:43:06.391Z,67.49
2018-04-17T01:46:09.627Z,67.90
2018-04-17T01:49:12.884Z,67.59
2018-04-17T01:52:16.291Z,67.33
2018-04-17T01:55:19.624Z,67.57
2018-04-17T01:58:22.977Z,67.95
2018-04-17T02:01:26.312Z,68.56
2018-04-17T02:04:29.624Z,68.38
2018-04-17T02:07:32.911Z,68.40
2018-04-17T02:10:36.108Z,68.41
2018-04-17T02:13:39.493Z,68.69
2018-04-17T02:16:42.763Z,68.86
2018-04-17T02:19:46.014Z,69.05
2018-04-17T02:22:49.373Z,68.79
2018-04-17T02:25:52.666Z,68.58
2018-04-17T02:28:55.977Z,68.39
2018-04-17T02:31:59.369Z,68.96
2018-04-17T02:35:02.660Z,68.72
2018-04-17T02:38:05.964Z,69.02
2018-04-17T02:41:09.356Z,69.30
2018-04-17T02:44:12.589Z,69.18
2018-04-17T02:47:15.956Z,69.24
2018-04-17T02:50:19.178Z,69.47
2018-04-17T02:53:22.565Z,69.66
2018-04-17T02:56:25.785Z,69.81
2018-04-17T02:59:29.036Z,70.12
2018-04-17T03:02:32.349Z,70.53
2018-04-17T03:05:35.563Z,70.80
2018-04-17T03:08:38.760Z,70.70
2018-04-17T03:11:42.125Z,70.90
2018-04-17T03:14:45.352Z,70.61
2018-04-17T03:17:48.616Z,70.99
2018-04-17T03:20:52.012Z,70.50
2018-04-17T03:23:55.312Z,70.15
2018-04-17T03:26:58.630Z,69.93
2018-04-17T03:30:01.999Z,70.39
2018-04-17T03:33:05.327Z,70.57
2018-04-17T03:36:08.635Z,70.89
2018-04-17T03:39:11.831Z,70.58
2018-04-17T03:42:15.217Z,70.93
2018-04-17T03:45:18.615Z,70.89
2018-04-17T03:48:22.091Z,70.50
2018-04-17T03:51:25.444Z,71.04
2018-04-17T03:54:28.821Z,71.23
2018-04-17T03:57:32.081Z,71.23
2018-04-17T04:00:35.373Z,70.82
2018-04-17T04:03:38.670Z,71.39
2018-04-17T04:06:41.960Z,71.40
2018-04-17T04:09:45.248Z,71.17
2018-04-17T04:12:48.616Z,71.07
2018-04-17T04:15:51.970Z,71.35
2018-04-17T04:20:04.393Z,70.91
2018-04-17T04:25:18.575Z,71.39
2018-04-17T04:28:22.021Z,71.88
2018-04-17T04:31:26.316Z,71.76
2018-04-17T04:34:29.556Z,72.41
2018-04-17T04:37:32.799Z,72.45
2018-04-17T04:40:36.024Z,72.85
2018-04-17T04:43:39.400Z,72.58
2018-04-17T04:46:42.665Z,72.53
2018-04-17T04:49:45.986Z,72.33
2018-04-17T04:52:49.251Z,71.60
2018-04-17T04:55:52.957Z,72.21
2018-04-17T04:58:56.289Z,72.46
2018-04-17T05:01:59.541Z,72.39
2018-04-17T05:05:02.880Z,71.42
2018-04-17T05:08:06.290Z,71.95
2018-04-17T05:11:09.605Z,72.42
2018-04-17T05:14:13.026Z,71.89
2018-04-17T05:17:16.273Z,72.44
2018-04-17T05:20:19.616Z,72.40
2018-04-17T05:23:22.876Z,72.28
2018-04-17T05:26:27.154Z,72.23
2018-04-17T05:29:30.340Z,71.61
2018-04-17T05:32:33.580Z,71.82
2018-04-17T05:35:36.901Z,71.97
2018-04-17T05:38:40.181Z,71.84
2018-04-17T05:41:43.478Z,71.69
2018-04-17T05:44:46.742Z,71.62
2018-04-17T05:47:50.046Z,70.52
2018-04-17T05:50:54.080Z,70.72
2018-04-17T05:53:57.330Z,71.09
2018-04-17T05:57:00.547Z,70.06
2018-04-17T06:00:03.792Z,70.15
2018-04-17T06:03:07.079Z,69.93
2018-04-17T06:06:10.433Z,70.34
2018-04-17T06:09:13.647Z,69.87
2018-04-17T06:12:16.912Z,69.58
2018-04-17T06:15:20.073Z,68.17
2018-04-17T06:18:23.369Z,68.00
2018-04-17T06:21:26.606Z,68.05
2018-04-17T06:24:29.874Z,67.66
2018-04-17T06:27:33.146Z,66.44
2018-04-17T06:30:36.386Z,66.79
2018-04-17T06:33:39.641Z,66.80
2018-04-17T06:36:43.006Z,66.60
2018-04-17T06:39:46.241Z,66.56
2018-04-17T06:42:49.530Z,65.82
2018-04-17T06:45:52.876Z,66.36
2018-04-17T06:48:56.224Z,66.00
2018-04-17T06:51:59.561Z,65.13
2018-04-17T06:55:02.937Z,65.82
2018-04-17T06:58:06.111Z,64.42
2018-04-17T07:01:09.395Z,64.70
2018-04-17T07:04:12.706Z,64.18
2018-04-17T07:07:15.988Z,62.79
2018-04-17T07:10:19.250Z,62.54
2018-04-17T07:13:22.575Z,62.66
2018-04-17T07:16:25.801Z,63.02
2018-04-17T07:19:29.030Z,62.26
2018-04-17T07:22:32.188Z,62.66
2018-04-17T07:25:35.535Z,61.35
2018-04-17T07:28:38.772Z,62.14
2018-04-17T07:31:42.062Z,60.69
2018-04-17T07:34:45.382Z,60.46
2018-04-17T07:37:48.587Z,60.68
2018-04-17T07:40:51.774Z,60.26
2018-04-17T07:43:55.080Z,59.01
2018-04-17T07:47:07.221Z,59.57
2018-04-17T07:50:10.492Z,58.89
2018-04-17T07:53:13.777Z,59.06
2018-04-17T07:56:17.047Z,58.92
2018-04-17T07:59:20.264Z,58.49
2018-04-17T08:02:23.476Z,57.03
2018-04-17T08:05:27.025Z,59.06
2018-04-17T08:08:30.248Z,58.56
2018-04-17T08:11:33.456Z,57.22
2018-04-17T08:14:36.767Z,56.33
2018-04-17T08:17:40.114Z,55.74
2018-04-17T08:20:43.290Z,55.36
2018-04-17T08:23:46.516Z,54.55
2018-04-17T08:26:49.720Z,53.63
2018-04-17T08:29:55.169Z,53.82
2018-04-17T08:32:59.034Z,52.59
2018-04-17T08:36:02.262Z,51.87
2018-04-17T08:39:06.071Z,52.31
2018-04-17T08:42:09.411Z,52.51
2018-04-17T08:45:12.682Z,52.24
2018-04-17T08:48:15.968Z,51.09
2018-04-17T08:51:19.204Z,52.63
2018-04-17T08:54:22.523Z,50.72
2018-04-17T08:57:25.851Z,51.91
2018-04-17T09:00:29.012Z,49.56
2018-04-17T09:03:32.252Z,48.43
2018-04-17T09:06:35.476Z,49.14
2018-04-17T09:09:38.749Z,49.54
2018-04-17T09:12:42.009Z,49.81
2018-04-17T09:15:45.248Z,49.46
2018-04-17T09:18:48.463Z,48.19
2018-04-17T09:21:52.778Z,47.60
2018-04-17T09:24:56.048Z,47.45
2018-04-17T09:27:59.253Z,50.32
2018-04-17T09:31:02.468Z,51.40
2018-04-17T09:34:05.689Z,49.44
2018-04-17T09:37:08.952Z,49.62
2018-04-17T09:40:12.125Z,49.94
2018-04-17T09:43:15.330Z,48.47
2018-04-17T09:46:18.587Z,48.06
2018-04-17T09:49:21.821Z,47.60
2018-04-17T09:52:25.186Z,48.51
2018-04-17T09:55:28.953Z,47.61
2018-04-17T09:58:32.421Z,47.23
2018-04-17T10:01:35.623Z,47.26
2018-04-17T10:04:38.932Z,46.70
2018-04-17T10:07:42.244Z,46.00
2018-04-17T10:10:45.523Z,46.31
2018-04-17T10:13:48.843Z,45.80
2018-04-17T10:16:52.225Z,45.14
2018-04-17T10:19:55.551Z,45.49
2018-04-17T10:22:58.816Z,45.41
2018-04-17T10:26:02.105Z,45.18
2018-04-17T10:29:05.440Z,45.12
2018-04-17T10:32:08.717Z,43.83
2018-04-17T10:35:11.960Z,43.40
2018-04-17T10:38:15.111Z,42.81
2018-04-17T10:41:18.409Z,43.71
2018-04-17T10:44:22.202Z,43.54
2018-04-17T10:47:25.460Z,43.42
2018-04-17T10:50:28.644Z,43.80
2018-04-17T10:53:31.906Z,42.87
2018-04-17T10:56:35.372Z,41.89
2018-04-17T10:59:38.673Z,41.36
2018-04-17T11:02:41.988Z,40.48
2018-04-17T11:05:45.258Z,40.74
2018-04-17T11:08:48.480Z,40.39
2018-04-17T11:11:51.839Z,39.31
2018-04-17T11:14:55.180Z,40.35
2018-04-17T11:17:58.408Z,37.54
2018-04-17T11:21:01.693Z,37.78
2018-04-17T11:24:04.980Z,40.07
2018-04-17T11:27:08.180Z,36.79
2018-04-17T11:30:11.429Z,38.13
2018-04-17T11:33:14.669Z,34.58
2018-04-17T11:36:17.891Z,35.47
2018-04-17T11:39:21.184Z,34.81
2018-04-17T11:42:24.458Z,35.45
2018-04-17T11:45:27.754Z,35.26
2018-04-17T11:48:31.048Z,35.08
2018-04-17T11:51:34.293Z,34.08
2018-04-17T11:54:37.524Z,34.81
2018-04-17T11:57:40.670Z,35.54
2018-04-17T12:00:43.954Z,36.18
2018-04-17T12:03:47.223Z,33.86
2018-04-17T12:06:50.489Z,35.36
2018-04-17T12:09:53.883Z,33.93
2018-04-17T12:12:57.010Z,34.53
2018-04-17T12:16:00.336Z,33.54
2018-04-17T12:19:03.649Z,33.51
2018-04-17T12:22:06.937Z,32.82
2018-04-17T12:25:10.120Z,32.29
2018-04-17T12:28:13.300Z,31.28
2018-04-17T12:31:16.672Z,32.94
2018-04-17T12:34:19.960Z,32.18
2018-04-17T12:37:23.217Z,30.59
2018-04-17T12:40:26.474Z,29.76
2018-04-17T12:43:29.771Z,29.75
2018-04-17T12:46:33.071Z,31.11
2018-04-17T12:49:36.403Z,31.03
2018-04-17T12:52:39.584Z,29.63
2018-04-17T12:55:42.749Z,30.99
2018-04-17T12:58:46.032Z,30.21
2018-04-17T13:01:49.403Z,30.02
2018-04-17T13:04:52.675Z,30.62
2018-04-17T13:07:55.949Z,29.38
2018-04-17T13:10:59.167Z,29.53
2018-04-17T13:14:02.832Z,30.18
2018-04-17T13:17:06.312Z,29.33
2018-04-17T13:20:09.476Z,27.81
2018-04-17T13:23:12.871Z,29.23
2018-04-17T13:26:16.127Z,30.16
2018-04-17T13:29:19.446Z,29.55
2018-04-17T13:32:22.682Z,28.13
2018-04-17T13:35:25.943Z,27.58
2018-04-17T13:38:29.211Z,29.07
2018-04-17T13:41:32.371Z,28.29
2018-04-17T13:44:35.614Z,27.84
2018-04-17T13:47:38.921Z,29.22
2018-04-17T13:50:42.212Z,28.99
2018-04-17T13:53:45.499Z,29.60
2018-04-17T13:56:48.838Z,28.72
2018-04-17T13:59:52.078Z,28.27
2018-04-17T14:02:55.471Z,27.34
2018-04-17T14:05:58.731Z,28.21
2018-04-17T14:09:01.961Z,26.86
2018-04-17T14:12:05.318Z,27.12
2018-04-17T14:15:08.578Z,27.28
2018-04-17T14:18:12.072Z,27.29
2018-04-17T14:21:15.293Z,26.84
2018-04-17T14:24:18.598Z,26.22
2018-04-17T14:27:21.925Z,26.50
2018-04-17T14:30:25.189Z,25.46
2018-04-17T14:33:28.525Z,24.81
2018-04-17T14:36:31.793Z,23.99
2018-04-17T14:39:35.005Z,26.54
2018-04-17T14:42:38.252Z,25.87
2018-04-17T14:45:41.538Z,25.31
2018-04-17T14:48:44.776Z,24.07
2018-04-17T14:51:48.113Z,26.08
2018-04-17T14:54:51.349Z,25.26
2018-04-17T14:57:54.659Z,24.76
2018-04-17T15:00:58.064Z,25.00
2018-04-17T15:04:01.329Z,25.42
2018-04-17T15:07:04.599Z,25.32
2018-04-17T15:10:07.881Z,25.53
2018-04-17T15:13:11.192Z,24.31
2018-04-17T15:16:14.501Z,25.13
2018-04-17T15:19:17.723Z,24.35
2018-04-17T15:22:21.212Z,23.75
2018-04-17T15:25:24.402Z,23.66
2018-04-17T15:28:27.637Z,23.27
2018-04-17T15:31:30.882Z,23.76
2018-04-17T15:34:34.139Z,23.79
2018-04-17T15:37:37.467Z,25.47
2018-04-17T15:40:40.732Z,24.91
2018-04-17T15:43:43.999Z,24.47
2018-04-17T15:46:47.265Z,23.92
2018-04-17T15:49:50.544Z,24.24
2018-04-17T15:52:53.907Z,23.59
2018-04-17T15:55:57.180Z,24.45
2018-04-17T15:59:00.314Z,24.05
2018-04-17T16:02:03.544Z,25.15
2018-04-17T16:05:06.767Z,23.23
2018-04-17T16:08:10.059Z,23.42
2018-04-17T16:11:13.280Z,24.45
2018-04-17T16:14:16.499Z,23.30
2018-04-17T16:17:19.765Z,23.13
2018-04-17T16:20:23.058Z,23.30
2018-04-17T16:23:26.365Z,23.44
2018-04-17T16:26:29.632Z,25.16
2018-04-17T16:29:32.892Z,24.58
2018-04-17T16:32:36.147Z,25.14
2018-04-17T16:35:39.435Z,23.54
2018-04-17T16:38:42.757Z,25.06
2018-04-17T16:41:46.061Z,24.67
2018-04-17T16:44:49.365Z,23.94
2018-04-17T16:47:52.681Z,24.74
2018-04-17T16:50:55.862Z,25.76
2018-04-17T16:53:59.046Z,26.10
2018-04-17T16:57:02.352Z,25.70
2018-04-17T17:00:05.576Z,24.70
2018-04-17T17:03:10.890Z,24.60
2018-04-17T17:06:14.210Z,25.85
2018-04-17T17:09:17.654Z,25.34
2018-04-17T17:12:21.051Z,25.22
2018-04-17T17:15:24.374Z,25.27
2018-04-17T17:18:27.733Z,25.30
2018-04-17T17:21:30.984Z,25.89
2018-04-17T17:24:34.276Z,25.73
2018-04-17T17:27:37.672Z,26.40
2018-04-17T17:30:40.955Z,26.25
2018-04-17T17:33:44.206Z,26.19
2018-04-17T17:36:47.471Z,27.41
2018-04-17T17:39:50.656Z,27.17
2018-04-17T17:42:54.005Z,27.10
2018-04-17T17:45:57.208Z,27.63
2018-04-17T17:49:00.466Z,28.31
2018-04-17T17:52:03.796Z,27.16
2018-04-17T17:55:06.973Z,28.08
2018-04-17T17:58:10.236Z,27.77
2018-04-17T18:01:13.589Z,28.86
2018-04-17T18:04:16.778Z,29.45
2018-04-17T18:07:20.036Z,29.87
2018-04-17T18:10:23.840Z,30.37
2018-04-17T18:13:27.119Z,30.89
2018-04-17T18:16:30.379Z,31.10
2018-04-17T18:19:33.721Z,31.65
2018-04-17T18:22:37.082Z,31.93
2018-04-17T18:25:40.355Z,32.77
2018-04-17T18:28:43.741Z,33.06
2018-04-17T18:31:47.016Z,33.43
2018-04-17T18:34:50.435Z,32.87
2018-04-17T18:37:53.828Z,34.48
2018-04-17T18:40:57.124Z,36.27
2018-04-17T18:44:00.533Z,38.31
2018-04-17T18:47:03.913Z,39.06
2018-04-17T18:50:07.230Z,39.63
2018-04-17T18:53:10.608Z,40.03
2018-04-17T18:56:13.889Z,40.29
2018-04-17T18:59:17.199Z,40.83
2018-04-17T19:02:20.458Z,41.55
2018-04-17T19:05:23.908Z,41.60
2018-04-17T19:08:27.220Z,41.84
2018-04-17T19:11:30.549Z,42.78
2018-04-17T19:14:33.917Z,42.83
2018-04-17T19:17:37.404Z,43.20
2018-04-17T19:20:40.732Z,42.93
2018-04-17T19:23:44.134Z,43.43
2018-04-17T19:26:47.512Z,43.99
2018-04-17T19:29:50.776Z,44.35
2018-04-17T19:32:54.424Z,44.99
2018-04-17T19:35:57.880Z,45.40
2018-04-17T19:39:01.173Z,45.59
2018-04-17T19:42:04.433Z,45.77
2018-04-17T19:45:07.784Z,46.43
2018-04-17T19:48:11.207Z,46.95
2018-04-17T19:51:14.608Z,47.83
2018-04-17T19:54:18.009Z,47.53
2018-04-17T19:57:21.461Z,48.59
2018-04-17T20:00:24.826Z,48.68
2018-04-17T20:03:28.311Z,49.01
2018-04-17T20:06:31.616Z,49.49
2018-04-17T20:09:34.885Z,49.51
2018-04-17T20:12:38.255Z,49.66
2018-04-17T20:15:41.608Z,49.98
2018-04-17T20:18:44.890Z,50.07
2018-04-17T20:21:48.346Z,49.31
2018-04-17T20:24:51.723Z,48.44
2018-04-17T20:27:54.945Z,47.70
2018-04-17T20:30:58.278Z,47.65
2018-04-17T20:34:01.587Z,49.65
2018-04-17T20:37:04.909Z,50.92
2018-04-17T20:40:08.125Z,51.96
2018-04-17T20:43:11.467Z,52.58
2018-04-17T20:46:14.705Z,53.01
2018-04-17T20:49:18.062Z,53.60
2018-04-17T20:52:21.482Z,54.05
2018-04-17T20:55:24.782Z,54.03
2018-04-17T20:58:28.162Z,54.18
2018-04-17T21:01:31.547Z,54.10
2018-04-17T21:04:34.872Z,54.01
2018-04-17T21:07:38.362Z,54.31
2018-04-17T21:10:41.817Z,54.57
2018-04-17T21:13:45.169Z,54.40
2018-04-17T21:16:48.477Z,54.91
2018-04-17T21:19:52.922Z,55.05
2018-04-17T21:22:56.339Z,54.97
2018-04-17T21:25:59.695Z,55.33
2018-04-17T21:29:03.093Z,55.63
2018-04-17T21:32:06.482Z,55.23
2018-04-17T21:35:09.796Z,55.55
2018-04-17T21:38:13.302Z,55.71
2018-04-17T21:41:16.685Z,56.28
2018-04-17T21:44:20.034Z,56.21
2018-04-17T21:47:23.493Z,56.81
2018-04-17T21:50:26.873Z,56.86
2018-04-17T21:53:30.120Z,56.04
2018-04-17T21:56:33.376Z,54.08
2018-04-17T21:59:36.752Z,52.86
2018-04-17T22:02:40.017Z,51.31
2018-04-17T22:05:43.185Z,51.04
2018-04-17T22:08:46.558Z,50.85
2018-04-17T22:11:49.973Z,50.75
2018-04-17T22:14:53.224Z,50.57
2018-04-17T22:17:56.492Z,50.49
2018-04-17T22:20:59.858Z,50.67
2018-04-17T22:24:03.105Z,50.53
2018-04-17T22:27:06.456Z,50.52
2018-04-17T22:30:09.868Z,50.83
2018-04-17T22:33:13.120Z,50.87
2018-04-17T22:36:16.481Z,51.63
2018-04-17T22:39:19.857Z,52.39
2018-04-17T22:42:23.169Z,54.18
2018-04-17T22:45:26.582Z,55.60
2018-04-17T22:48:30.007Z,57.12
2018-04-17T22:51:34.353Z,57.79
2018-04-17T22:54:37.638Z,58.36
2018-04-17T22:57:40.901Z,58.18
2018-04-17T23:00:44.250Z,57.41
2018-04-17T23:03:47.538Z,55.58
2018-04-17T23:06:50.837Z,54.35
2018-04-17T23:09:54.566Z,54.81
2018-04-17T23:12:57.835Z,54.59
2018-04-17T23:16:01.237Z,54.57
2018-04-17T23:19:04.548Z,54.65
2018-04-17T23:22:07.833Z,55.05
2018-04-17T23:25:11.234Z,54.76
2018-04-17T23:28:14.456Z,55.05
2018-04-17T23:31:17.744Z,53.81
2018-04-17T23:34:21.057Z,55.01
2018-04-17T23:37:24.515Z,54.81
2018-04-17T23:40:27.715Z,54.90
2018-04-17T23:43:31.148Z,55.18
2018-04-17T23:46:34.564Z,55.11
2018-04-17T23:49:38.736Z,55.02
2018-04-17T23:52:42.029Z,55.19
2018-04-17T23:55:45.331Z,55.28
2018-04-17T23:58:48.627Z,55.03
